sensor_id;sensor_type;location;lat;lon;timestamp;temperature;humidity
40257;DHT22;25977;45.462;9.210;2022-07-09T00:00:05;27.40;48.50
40257;DHT22;25977;45.462;9.210;2022-07-09T00:02:35;27.40;48.50
40257;DHT22;25977;45.462;9.210;2022-07-09T00:05:01;27.50;48.40
40257;DHT22;25977;45.462;9.210;2022-07-09T00:07:27;27.40;48.40
40257;DHT22;25977;45.462;9.210;2022-07-09T00:09:53;27.00;48.50
40257;DHT22;25977;45.462;9.210;2022-07-09T00:12:19;27.00;48.80
40257;DHT22;25977;45.462;9.210;2022-07-09T00:14:45;27.00;48.80
40257;DHT22;25977;45.462;9.210;2022-07-09T00:17:11;27.10;48.80
40257;DHT22;25977;45.462;9.210;2022-07-09T00:19:36;27.00;48.80
40257;DHT22;25977;45.462;9.210;2022-07-09T00:22:02;27.10;49.10
40257;DHT22;25977;45.462;9.210;2022-07-09T00:24:28;27.10;49.00
40257;DHT22;25977;45.462;9.210;2022-07-09T00:26:54;27.10;49.00
40257;DHT22;25977;45.462;9.210;2022-07-09T00:29:20;27.00;49.10
40257;DHT22;25977;45.462;9.210;2022-07-09T00:31:45;27.00;49.20
40257;DHT22;25977;45.462;9.210;2022-07-09T00:34:12;26.90;49.20
40257;DHT22;25977;45.462;9.210;2022-07-09T00:36:38;26.90;49.30
40257;DHT22;25977;45.462;9.210;2022-07-09T00:39:04;26.80;49.30
40257;DHT22;25977;45.462;9.210;2022-07-09T00:41:30;26.90;49.30
40257;DHT22;25977;45.462;9.210;2022-07-09T00:43:56;26.80;49.20
40257;DHT22;25977;45.462;9.210;2022-07-09T00:46:22;26.70;49.20
40257;DHT22;25977;45.462;9.210;2022-07-09T00:48:47;26.80;49.30
40257;DHT22;25977;45.462;9.210;2022-07-09T00:51:14;26.80;49.10
40257;DHT22;25977;45.462;9.210;2022-07-09T00:53:41;26.70;48.90
40257;DHT22;25977;45.462;9.210;2022-07-09T00:56:08;26.50;49.50
40257;DHT22;25977;45.462;9.210;2022-07-09T00:58:35;26.50;48.80
40257;DHT22;25977;45.462;9.210;2022-07-09T01:01:02;26.50;49.10
40257;DHT22;25977;45.462;9.210;2022-07-09T01:03:28;26.40;48.40
40257;DHT22;25977;45.462;9.210;2022-07-09T01:05:54;26.30;48.50
40257;DHT22;25977;45.462;9.210;2022-07-09T01:08:22;26.30;48.60
40257;DHT22;25977;45.462;9.210;2022-07-09T01:10:48;26.30;48.40
40257;DHT22;25977;45.462;9.210;2022-07-09T01:13:15;26.40;48.40
40257;DHT22;25977;45.462;9.210;2022-07-09T01:15:41;26.30;47.90
40257;DHT22;25977;45.462;9.210;2022-07-09T01:18:10;26.30;47.80
40257;DHT22;25977;45.462;9.210;2022-07-09T01:20:36;26.30;47.80
40257;DHT22;25977;45.462;9.210;2022-07-09T01:23:02;26.30;47.70
40257;DHT22;25977;45.462;9.210;2022-07-09T01:25:37;26.30;47.70
40257;DHT22;25977;45.462;9.210;2022-07-09T01:28:05;26.30;47.50
40257;DHT22;25977;45.462;9.210;2022-07-09T01:30:32;26.30;47.30
40257;DHT22;25977;45.462;9.210;2022-07-09T01:32:58;26.30;47.10
40257;DHT22;25977;45.462;9.210;2022-07-09T01:35:24;26.30;47.10
40257;DHT22;25977;45.462;9.210;2022-07-09T01:37:51;26.30;47.10
40257;DHT22;25977;45.462;9.210;2022-07-09T01:40:17;26.20;46.90
40257;DHT22;25977;45.462;9.210;2022-07-09T01:42:42;26.30;46.90
40257;DHT22;25977;45.462;9.210;2022-07-09T01:45:09;26.30;46.90
40257;DHT22;25977;45.462;9.210;2022-07-09T01:47:35;26.30;46.80
40257;DHT22;25977;45.462;9.210;2022-07-09T01:50:01;26.20;46.60
40257;DHT22;25977;45.462;9.210;2022-07-09T01:52:28;26.20;46.70
40257;DHT22;25977;45.462;9.210;2022-07-09T01:54:54;26.20;46.70
40257;DHT22;25977;45.462;9.210;2022-07-09T01:57:20;26.10;46.70
40257;DHT22;25977;45.462;9.210;2022-07-09T01:59:46;26.10;46.80
40257;DHT22;25977;45.462;9.210;2022-07-09T02:02:11;26.10;46.80
40257;DHT22;25977;45.462;9.210;2022-07-09T02:04:37;26.20;46.80
40257;DHT22;25977;45.462;9.210;2022-07-09T02:07:04;26.20;46.80
40257;DHT22;25977;45.462;9.210;2022-07-09T02:09:29;26.20;46.80
40257;DHT22;25977;45.462;9.210;2022-07-09T02:11:55;26.20;46.80
40257;DHT22;25977;45.462;9.210;2022-07-09T02:14:21;26.10;47.10
40257;DHT22;25977;45.462;9.210;2022-07-09T02:16:47;26.10;47.00
40257;DHT22;25977;45.462;9.210;2022-07-09T02:19:14;26.10;47.00
40257;DHT22;25977;45.462;9.210;2022-07-09T02:21:40;26.10;46.90
40257;DHT22;25977;45.462;9.210;2022-07-09T02:24:06;26.20;47.20
40257;DHT22;25977;45.462;9.210;2022-07-09T02:26:33;26.20;47.00
40257;DHT22;25977;45.462;9.210;2022-07-09T02:28:59;26.10;46.90
40257;DHT22;25977;45.462;9.210;2022-07-09T02:31:25;26.20;46.80
40257;DHT22;25977;45.462;9.210;2022-07-09T02:33:52;26.10;46.90
40257;DHT22;25977;45.462;9.210;2022-07-09T02:36:18;26.10;46.90
40257;DHT22;25977;45.462;9.210;2022-07-09T02:38:45;26.10;46.90
40257;DHT22;25977;45.462;9.210;2022-07-09T02:41:10;26.10;47.00
40257;DHT22;25977;45.462;9.210;2022-07-09T02:43:36;26.20;47.10
40257;DHT22;25977;45.462;9.210;2022-07-09T02:46:02;26.20;47.00
40257;DHT22;25977;45.462;9.210;2022-07-09T02:48:29;26.20;46.90
40257;DHT22;25977;45.462;9.210;2022-07-09T02:50:55;26.20;47.00
40257;DHT22;25977;45.462;9.210;2022-07-09T02:53:21;26.20;47.00
40257;DHT22;25977;45.462;9.210;2022-07-09T02:55:46;26.10;47.00
40257;DHT22;25977;45.462;9.210;2022-07-09T02:58:13;26.10;47.00
40257;DHT22;25977;45.462;9.210;2022-07-09T03:00:39;26.10;47.10
40257;DHT22;25977;45.462;9.210;2022-07-09T03:03:06;26.00;47.30
40257;DHT22;25977;45.462;9.210;2022-07-09T03:05:32;26.00;47.40
40257;DHT22;25977;45.462;9.210;2022-07-09T03:07:58;26.00;47.50
40257;DHT22;25977;45.462;9.210;2022-07-09T03:10:24;26.00;47.60
40257;DHT22;25977;45.462;9.210;2022-07-09T03:12:50;26.00;47.50
40257;DHT22;25977;45.462;9.210;2022-07-09T03:15:15;25.90;47.60
40257;DHT22;25977;45.462;9.210;2022-07-09T03:17:46;25.90;47.60
40257;DHT22;25977;45.462;9.210;2022-07-09T03:20:12;25.70;47.50
40257;DHT22;25977;45.462;9.210;2022-07-09T03:22:39;25.80;47.70
40257;DHT22;25977;45.462;9.210;2022-07-09T03:25:05;25.80;47.60
40257;DHT22;25977;45.462;9.210;2022-07-09T03:27:31;25.80;47.70
40257;DHT22;25977;45.462;9.210;2022-07-09T03:29:57;25.80;47.70
40257;DHT22;25977;45.462;9.210;2022-07-09T03:32:23;25.80;47.60
40257;DHT22;25977;45.462;9.210;2022-07-09T03:34:49;25.80;47.60
40257;DHT22;25977;45.462;9.210;2022-07-09T03:37:15;25.80;47.70
40257;DHT22;25977;45.462;9.210;2022-07-09T03:39:41;25.60;47.70
40257;DHT22;25977;45.462;9.210;2022-07-09T03:42:07;25.60;47.80
40257;DHT22;25977;45.462;9.210;2022-07-09T03:44:33;25.60;47.80
40257;DHT22;25977;45.462;9.210;2022-07-09T03:46:59;25.60;47.80
40257;DHT22;25977;45.462;9.210;2022-07-09T03:49:25;25.60;47.70
40257;DHT22;25977;45.462;9.210;2022-07-09T03:51:51;25.60;47.80
40257;DHT22;25977;45.462;9.210;2022-07-09T03:54:17;25.60;47.70
40257;DHT22;25977;45.462;9.210;2022-07-09T03:56:43;25.60;47.80
40257;DHT22;25977;45.462;9.210;2022-07-09T03:59:09;25.60;47.70
40257;DHT22;25977;45.462;9.210;2022-07-09T04:01:34;25.70;47.60
40257;DHT22;25977;45.462;9.210;2022-07-09T04:04:00;25.70;47.60
40257;DHT22;25977;45.462;9.210;2022-07-09T04:06:26;25.70;47.50
40257;DHT22;25977;45.462;9.210;2022-07-09T04:08:52;25.70;47.40
40257;DHT22;25977;45.462;9.210;2022-07-09T04:11:17;25.80;47.40
40257;DHT22;25977;45.462;9.210;2022-07-09T04:13:43;25.80;47.40
40257;DHT22;25977;45.462;9.210;2022-07-09T04:16:09;25.80;47.30
40257;DHT22;25977;45.462;9.210;2022-07-09T04:18:35;25.80;47.30
40257;DHT22;25977;45.462;9.210;2022-07-09T04:21:01;25.80;47.00
40257;DHT22;25977;45.462;9.210;2022-07-09T04:23:28;25.80;47.10
40257;DHT22;25977;45.462;9.210;2022-07-09T04:25:53;25.80;47.10
40257;DHT22;25977;45.462;9.210;2022-07-09T04:28:20;25.70;47.10
40257;DHT22;25977;45.462;9.210;2022-07-09T04:30:46;25.70;47.30
40257;DHT22;25977;45.462;9.210;2022-07-09T04:33:12;25.70;47.10
40257;DHT22;25977;45.462;9.210;2022-07-09T04:35:38;25.70;47.20
40257;DHT22;25977;45.462;9.210;2022-07-09T04:38:04;25.80;47.10
40257;DHT22;25977;45.462;9.210;2022-07-09T04:40:30;25.80;46.90
40257;DHT22;25977;45.462;9.210;2022-07-09T04:42:56;25.80;46.80
40257;DHT22;25977;45.462;9.210;2022-07-09T04:45:23;25.80;46.80
40257;DHT22;25977;45.462;9.210;2022-07-09T04:47:48;25.80;46.80
40257;DHT22;25977;45.462;9.210;2022-07-09T04:50:14;25.80;46.80
40257;DHT22;25977;45.462;9.210;2022-07-09T04:52:40;25.80;46.80
40257;DHT22;25977;45.462;9.210;2022-07-09T04:55:07;25.90;46.70
40257;DHT22;25977;45.462;9.210;2022-07-09T04:57:33;25.90;46.60
40257;DHT22;25977;45.462;9.210;2022-07-09T04:59:59;26.00;46.80
40257;DHT22;25977;45.462;9.210;2022-07-09T05:02:26;26.00;46.40
40257;DHT22;25977;45.462;9.210;2022-07-09T05:04:52;26.10;46.50
40257;DHT22;25977;45.462;9.210;2022-07-09T05:07:17;26.20;46.50
40257;DHT22;25977;45.462;9.210;2022-07-09T05:09:43;26.40;46.30
40257;DHT22;25977;45.462;9.210;2022-07-09T05:12:09;27.30;46.40
40257;DHT22;25977;45.462;9.210;2022-07-09T05:14:39;28.90;44.20
40257;DHT22;25977;45.462;9.210;2022-07-09T05:17:05;30.90;42.60
40257;DHT22;25977;45.462;9.210;2022-07-09T05:19:32;32.70;41.00
40257;DHT22;25977;45.462;9.210;2022-07-09T05:21:58;34.10;39.60
40257;DHT22;25977;45.462;9.210;2022-07-09T05:24:23;34.90;38.60
40257;DHT22;25977;45.462;9.210;2022-07-09T05:26:49;35.70;38.10
40257;DHT22;25977;45.462;9.210;2022-07-09T05:29:15;36.40;37.70
40257;DHT22;25977;45.462;9.210;2022-07-09T05:31:42;37.00;37.10
40257;DHT22;25977;45.462;9.210;2022-07-09T05:34:08;37.30;36.80
40257;DHT22;25977;45.462;9.210;2022-07-09T05:36:34;37.50;36.40
40257;DHT22;25977;45.462;9.210;2022-07-09T05:39:00;37.60;36.30
40257;DHT22;25977;45.462;9.210;2022-07-09T05:41:26;38.10;36.10
40257;DHT22;25977;45.462;9.210;2022-07-09T05:43:53;38.50;36.00
40257;DHT22;25977;45.462;9.210;2022-07-09T05:46:19;39.10;35.60
40257;DHT22;25977;45.462;9.210;2022-07-09T05:48:46;39.30;35.50
40257;DHT22;25977;45.462;9.210;2022-07-09T05:51:12;39.60;35.30
40257;DHT22;25977;45.462;9.210;2022-07-09T05:53:38;39.80;35.00
40257;DHT22;25977;45.462;9.210;2022-07-09T05:56:04;39.90;35.20
40257;DHT22;25977;45.462;9.210;2022-07-09T05:58:29;38.20;35.10
40257;DHT22;25977;45.462;9.210;2022-07-09T06:00:55;37.50;35.80
40257;DHT22;25977;45.462;9.210;2022-07-09T06:03:21;38.20;36.10
40257;DHT22;25977;45.462;9.210;2022-07-09T06:05:47;38.30;36.40
40257;DHT22;25977;45.462;9.210;2022-07-09T06:08:14;39.40;36.10
40257;DHT22;25977;45.462;9.210;2022-07-09T06:10:39;40.40;35.90
40257;DHT22;25977;45.462;9.210;2022-07-09T06:13:05;40.80;35.50
40257;DHT22;25977;45.462;9.210;2022-07-09T06:15:31;38.90;35.00
40257;DHT22;25977;45.462;9.210;2022-07-09T06:17:56;39.80;35.90
40257;DHT22;25977;45.462;9.210;2022-07-09T06:20:22;40.20;35.40
40257;DHT22;25977;45.462;9.210;2022-07-09T06:22:48;38.90;36.20
40257;DHT22;25977;45.462;9.210;2022-07-09T06:25:13;39.50;35.90
40257;DHT22;25977;45.462;9.210;2022-07-09T06:27:39;38.20;36.10
40257;DHT22;25977;45.462;9.210;2022-07-09T06:30:08;38.30;36.60
40257;DHT22;25977;45.462;9.210;2022-07-09T06:32:34;37.50;36.80
40257;DHT22;25977;45.462;9.210;2022-07-09T06:35:00;37.20;37.10
40257;DHT22;25977;45.462;9.210;2022-07-09T06:37:26;35.80;37.90
40257;DHT22;25977;45.462;9.210;2022-07-09T06:39:51;35.30;38.50
40257;DHT22;25977;45.462;9.210;2022-07-09T06:42:21;34.10;38.90
40257;DHT22;25977;45.462;9.210;2022-07-09T06:44:56;33.00;40.50
40257;DHT22;25977;45.462;9.210;2022-07-09T06:47:22;32.80;40.80
40257;DHT22;25977;45.462;9.210;2022-07-09T06:49:47;32.80;41.10
40257;DHT22;25977;45.462;9.210;2022-07-09T06:52:13;32.20;40.80
40257;DHT22;25977;45.462;9.210;2022-07-09T06:54:39;32.20;41.50
40257;DHT22;25977;45.462;9.210;2022-07-09T06:57:05;32.10;41.70
40257;DHT22;25977;45.462;9.210;2022-07-09T06:59:32;31.60;41.80
40257;DHT22;25977;45.462;9.210;2022-07-09T07:01:58;31.40;41.80
40257;DHT22;25977;45.462;9.210;2022-07-09T07:04:23;30.40;42.60
40257;DHT22;25977;45.462;9.210;2022-07-09T07:06:50;30.50;42.70
40257;DHT22;25977;45.462;9.210;2022-07-09T07:09:16;30.40;42.80
40257;DHT22;25977;45.462;9.210;2022-07-09T07:11:47;30.40;42.80
40257;DHT22;25977;45.462;9.210;2022-07-09T07:14:14;30.90;42.40
40257;DHT22;25977;45.462;9.210;2022-07-09T07:16:40;31.20;42.40
40257;DHT22;25977;45.462;9.210;2022-07-09T07:19:06;31.30;41.90
40257;DHT22;25977;45.462;9.210;2022-07-09T07:21:32;31.30;41.90
40257;DHT22;25977;45.462;9.210;2022-07-09T07:23:58;31.40;41.60
40257;DHT22;25977;45.462;9.210;2022-07-09T07:26:24;31.50;41.40
40257;DHT22;25977;45.462;9.210;2022-07-09T07:28:49;31.70;41.60
40257;DHT22;25977;45.462;9.210;2022-07-09T07:31:15;31.80;41.50
40257;DHT22;25977;45.462;9.210;2022-07-09T07:33:41;32.00;41.50
40257;DHT22;25977;45.462;9.210;2022-07-09T07:36:07;32.00;41.30
40257;DHT22;25977;45.462;9.210;2022-07-09T07:38:36;31.70;41.40
40257;DHT22;25977;45.462;9.210;2022-07-09T07:41:02;31.80;41.70
40257;DHT22;25977;45.462;9.210;2022-07-09T07:43:28;31.60;41.60
40257;DHT22;25977;45.462;9.210;2022-07-09T07:45:53;31.60;41.50
40257;DHT22;25977;45.462;9.210;2022-07-09T07:48:19;31.30;41.80
40257;DHT22;25977;45.462;9.210;2022-07-09T07:50:45;31.50;42.00
40257;DHT22;25977;45.462;9.210;2022-07-09T07:53:10;31.20;42.10
40257;DHT22;25977;45.462;9.210;2022-07-09T07:55:36;31.40;42.00
40257;DHT22;25977;45.462;9.210;2022-07-09T07:58:02;31.60;41.60
40257;DHT22;25977;45.462;9.210;2022-07-09T08:00:28;31.70;40.90
40257;DHT22;25977;45.462;9.210;2022-07-09T08:02:53;31.80;40.80
40257;DHT22;25977;45.462;9.210;2022-07-09T08:05:20;31.80;41.10
40257;DHT22;25977;45.462;9.210;2022-07-09T08:07:46;31.60;41.50
40257;DHT22;25977;45.462;9.210;2022-07-09T08:10:11;31.20;41.90
40257;DHT22;25977;45.462;9.210;2022-07-09T08:12:37;31.30;41.40
40257;DHT22;25977;45.462;9.210;2022-07-09T08:15:03;31.20;41.50
40257;DHT22;25977;45.462;9.210;2022-07-09T08:17:29;31.20;41.20
40257;DHT22;25977;45.462;9.210;2022-07-09T08:19:55;31.20;41.20
40257;DHT22;25977;45.462;9.210;2022-07-09T08:22:21;30.40;41.20
40257;DHT22;25977;45.462;9.210;2022-07-09T08:24:46;30.70;41.80
40257;DHT22;25977;45.462;9.210;2022-07-09T08:27:12;30.40;42.30
40257;DHT22;25977;45.462;9.210;2022-07-09T08:29:38;30.70;42.00
40257;DHT22;25977;45.462;9.210;2022-07-09T08:32:04;30.90;42.20
40257;DHT22;25977;45.462;9.210;2022-07-09T08:34:30;31.00;42.00
40257;DHT22;25977;45.462;9.210;2022-07-09T08:36:56;30.90;42.20
40257;DHT22;25977;45.462;9.210;2022-07-09T08:39:22;30.90;42.20
40257;DHT22;25977;45.462;9.210;2022-07-09T08:41:47;30.50;42.20
40257;DHT22;25977;45.462;9.210;2022-07-09T08:44:15;30.70;42.60
40257;DHT22;25977;45.462;9.210;2022-07-09T08:46:43;30.90;42.60
40257;DHT22;25977;45.462;9.210;2022-07-09T08:49:09;30.80;43.10
40257;DHT22;25977;45.462;9.210;2022-07-09T08:51:36;30.90;42.60
40257;DHT22;25977;45.462;9.210;2022-07-09T08:54:04;31.10;42.50
40257;DHT22;25977;45.462;9.210;2022-07-09T08:56:32;31.40;42.50
40257;DHT22;25977;45.462;9.210;2022-07-09T08:58:58;31.50;42.30
40257;DHT22;25977;45.462;9.210;2022-07-09T09:01:25;31.30;42.40
40257;DHT22;25977;45.462;9.210;2022-07-09T09:03:51;31.30;42.50
40257;DHT22;25977;45.462;9.210;2022-07-09T09:06:21;31.40;42.70
40257;DHT22;25977;45.462;9.210;2022-07-09T09:08:47;31.40;42.50
40257;DHT22;25977;45.462;9.210;2022-07-09T09:11:20;31.50;42.60
40257;DHT22;25977;45.462;9.210;2022-07-09T09:13:48;31.40;42.10
40257;DHT22;25977;45.462;9.210;2022-07-09T09:16:16;31.50;42.10
40257;DHT22;25977;45.462;9.210;2022-07-09T09:18:44;31.00;42.40
40257;DHT22;25977;45.462;9.210;2022-07-09T09:21:11;31.10;42.30
40257;DHT22;25977;45.462;9.210;2022-07-09T09:23:47;31.20;41.60
40257;DHT22;25977;45.462;9.210;2022-07-09T09:26:21;31.20;41.40
40257;DHT22;25977;45.462;9.210;2022-07-09T09:28:54;31.30;42.40
40257;DHT22;25977;45.462;9.210;2022-07-09T09:31:25;31.40;41.90
40257;DHT22;25977;45.462;9.210;2022-07-09T09:33:53;31.60;41.90
40257;DHT22;25977;45.462;9.210;2022-07-09T09:36:31;31.60;41.90
40257;DHT22;25977;45.462;9.210;2022-07-09T09:39:23;31.60;42.00
40257;DHT22;25977;45.462;9.210;2022-07-09T09:41:57;31.00;43.50
40257;DHT22;25977;45.462;9.210;2022-07-09T09:44:26;30.80;43.50
40257;DHT22;25977;45.462;9.210;2022-07-09T09:46:57;30.70;42.80
40257;DHT22;25977;45.462;9.210;2022-07-09T09:49:24;31.00;42.00
40257;DHT22;25977;45.462;9.210;2022-07-09T09:52:00;31.10;41.70
40257;DHT22;25977;45.462;9.210;2022-07-09T09:54:28;31.30;42.10
40257;DHT22;25977;45.462;9.210;2022-07-09T09:56:55;31.20;42.50
40257;DHT22;25977;45.462;9.210;2022-07-09T09:59:22;31.30;42.70
40257;DHT22;25977;45.462;9.210;2022-07-09T10:01:47;31.50;42.80
40257;DHT22;25977;45.462;9.210;2022-07-09T10:04:14;31.40;42.70
40257;DHT22;25977;45.462;9.210;2022-07-09T10:06:44;31.40;42.30
40257;DHT22;25977;45.462;9.210;2022-07-09T10:09:14;31.30;41.80
40257;DHT22;25977;45.462;9.210;2022-07-09T10:11:42;31.40;41.70
40257;DHT22;25977;45.462;9.210;2022-07-09T10:14:14;31.50;41.90
40257;DHT22;25977;45.462;9.210;2022-07-09T10:16:40;31.60;41.50
40257;DHT22;25977;45.462;9.210;2022-07-09T10:19:06;31.60;41.90
40257;DHT22;25977;45.462;9.210;2022-07-09T10:21:42;31.70;41.40
40257;DHT22;25977;45.462;9.210;2022-07-09T10:24:10;31.80;41.40
40257;DHT22;25977;45.462;9.210;2022-07-09T10:26:44;31.70;41.10
40257;DHT22;25977;45.462;9.210;2022-07-09T10:29:24;31.80;41.10
40257;DHT22;25977;45.462;9.210;2022-07-09T10:31:55;31.70;41.40
40257;DHT22;25977;45.462;9.210;2022-07-09T10:37:14;31.70;42.10
40257;DHT22;25977;45.462;9.210;2022-07-09T10:39:40;31.40;42.00
40257;DHT22;25977;45.462;9.210;2022-07-09T10:42:26;30.70;42.50
40257;DHT22;25977;45.462;9.210;2022-07-09T10:44:52;31.00;42.90
40257;DHT22;25977;45.462;9.210;2022-07-09T10:47:19;31.20;42.70
40257;DHT22;25977;45.462;9.210;2022-07-09T10:49:45;31.40;42.40
40257;DHT22;25977;45.462;9.210;2022-07-09T10:52:10;31.30;42.10
40257;DHT22;25977;45.462;9.210;2022-07-09T10:54:46;31.40;42.00
40257;DHT22;25977;45.462;9.210;2022-07-09T10:57:13;31.40;41.80
40257;DHT22;25977;45.462;9.210;2022-07-09T10:59:45;31.50;41.80
40257;DHT22;25977;45.462;9.210;2022-07-09T11:02:21;31.50;42.20
40257;DHT22;25977;45.462;9.210;2022-07-09T11:04:52;31.50;42.20
40257;DHT22;25977;45.462;9.210;2022-07-09T11:07:20;31.60;42.10
40257;DHT22;25977;45.462;9.210;2022-07-09T11:09:46;31.70;41.90
40257;DHT22;25977;45.462;9.210;2022-07-09T11:12:20;31.60;41.70
40257;DHT22;25977;45.462;9.210;2022-07-09T11:14:47;31.30;42.00
40257;DHT22;25977;45.462;9.210;2022-07-09T11:17:17;31.30;42.10
40257;DHT22;25977;45.462;9.210;2022-07-09T11:19:44;31.40;42.00
40257;DHT22;25977;45.462;9.210;2022-07-09T11:22:10;31.60;41.90
40257;DHT22;25977;45.462;9.210;2022-07-09T11:24:36;31.30;42.30
40257;DHT22;25977;45.462;9.210;2022-07-09T11:27:04;31.00;43.00
40257;DHT22;25977;45.462;9.210;2022-07-09T11:29:30;30.80;43.00
40257;DHT22;25977;45.462;9.210;2022-07-09T11:31:56;30.50;43.40
40257;DHT22;25977;45.462;9.210;2022-07-09T11:34:22;30.70;42.90
40257;DHT22;25977;45.462;9.210;2022-07-09T11:36:51;30.90;42.80
40257;DHT22;25977;45.462;9.210;2022-07-09T11:41:49;31.30;42.20
40257;DHT22;25977;45.462;9.210;2022-07-09T11:44:26;31.30;42.60
40257;DHT22;25977;45.462;9.210;2022-07-09T11:47:09;31.00;42.40
40257;DHT22;25977;45.462;9.210;2022-07-09T11:49:45;31.00;42.80
40257;DHT22;25977;45.462;9.210;2022-07-09T11:52:19;30.90;42.80
40257;DHT22;25977;45.462;9.210;2022-07-09T11:55:05;31.00;42.60
40257;DHT22;25977;45.462;9.210;2022-07-09T11:57:33;30.70;42.70
40257;DHT22;25977;45.462;9.210;2022-07-09T12:00:01;30.50;43.00
40257;DHT22;25977;45.462;9.210;2022-07-09T12:02:33;30.30;42.80
40257;DHT22;25977;45.462;9.210;2022-07-09T12:05:00;30.40;42.70
40257;DHT22;25977;45.462;9.210;2022-07-09T12:07:27;30.60;42.50
40257;DHT22;25977;45.462;9.210;2022-07-09T12:09:59;30.80;42.10
40257;DHT22;25977;45.462;9.210;2022-07-09T12:12:26;30.90;42.10
40257;DHT22;25977;45.462;9.210;2022-07-09T12:14:52;30.60;41.70
40257;DHT22;25977;45.462;9.210;2022-07-09T12:17:22;30.70;42.00
40257;DHT22;25977;45.462;9.210;2022-07-09T12:19:48;30.90;42.10
40257;DHT22;25977;45.462;9.210;2022-07-09T12:22:14;31.00;41.90
40257;DHT22;25977;45.462;9.210;2022-07-09T12:24:40;30.80;42.40
40257;DHT22;25977;45.462;9.210;2022-07-09T12:27:05;30.50;43.00
40257;DHT22;25977;45.462;9.210;2022-07-09T12:29:31;30.70;43.00
40257;DHT22;25977;45.462;9.210;2022-07-09T12:31:57;30.50;43.00
40257;DHT22;25977;45.462;9.210;2022-07-09T12:34:23;30.70;42.80
40257;DHT22;25977;45.462;9.210;2022-07-09T12:36:49;30.90;42.90
40257;DHT22;25977;45.462;9.210;2022-07-09T12:39:15;30.80;42.60
40257;DHT22;25977;45.462;9.210;2022-07-09T12:41:40;30.90;42.60
40257;DHT22;25977;45.462;9.210;2022-07-09T12:44:06;31.10;42.40
40257;DHT22;25977;45.462;9.210;2022-07-09T12:46:33;31.30;42.20
40257;DHT22;25977;45.462;9.210;2022-07-09T12:48:58;31.10;43.20
40257;DHT22;25977;45.462;9.210;2022-07-09T12:51:25;31.20;43.30
40257;DHT22;25977;45.462;9.210;2022-07-09T12:53:51;30.90;43.30
40257;DHT22;25977;45.462;9.210;2022-07-09T12:56:17;31.10;43.40
40257;DHT22;25977;45.462;9.210;2022-07-09T12:58:42;31.20;43.10
40257;DHT22;25977;45.462;9.210;2022-07-09T13:01:08;31.30;42.80
40257;DHT22;25977;45.462;9.210;2022-07-09T13:03:34;31.50;42.70
40257;DHT22;25977;45.462;9.210;2022-07-09T13:06:00;31.60;42.80
40257;DHT22;25977;45.462;9.210;2022-07-09T13:08:26;31.80;42.70
40257;DHT22;25977;45.462;9.210;2022-07-09T13:10:51;31.90;42.60
40257;DHT22;25977;45.462;9.210;2022-07-09T13:13:17;31.90;42.40
40257;DHT22;25977;45.462;9.210;2022-07-09T13:15:43;31.60;42.40
40257;DHT22;25977;45.462;9.210;2022-07-09T13:18:10;31.50;42.50
40257;DHT22;25977;45.462;9.210;2022-07-09T13:20:35;31.40;42.80
40257;DHT22;25977;45.462;9.210;2022-07-09T13:23:01;31.50;42.70
40257;DHT22;25977;45.462;9.210;2022-07-09T13:25:27;31.70;42.70
40257;DHT22;25977;45.462;9.210;2022-07-09T13:27:52;31.60;42.70
40257;DHT22;25977;45.462;9.210;2022-07-09T13:30:18;31.80;42.70
40257;DHT22;25977;45.462;9.210;2022-07-09T13:32:50;31.90;42.70
40257;DHT22;25977;45.462;9.210;2022-07-09T13:35:15;31.90;42.50
40257;DHT22;25977;45.462;9.210;2022-07-09T13:37:41;31.70;42.40
40257;DHT22;25977;45.462;9.210;2022-07-09T13:40:07;31.70;42.40
40257;DHT22;25977;45.462;9.210;2022-07-09T13:42:33;31.50;42.40
40257;DHT22;25977;45.462;9.210;2022-07-09T13:44:59;31.50;42.50
40257;DHT22;25977;45.462;9.210;2022-07-09T13:47:25;31.30;42.40
40257;DHT22;25977;45.462;9.210;2022-07-09T13:49:50;31.70;42.40
40257;DHT22;25977;45.462;9.210;2022-07-09T13:52:16;32.00;42.10
40257;DHT22;25977;45.462;9.210;2022-07-09T13:54:42;31.60;42.20
40257;DHT22;25977;45.462;9.210;2022-07-09T13:57:07;31.50;42.70
40257;DHT22;25977;45.462;9.210;2022-07-09T13:59:33;31.80;42.80
40257;DHT22;25977;45.462;9.210;2022-07-09T14:01:59;31.90;42.70
40257;DHT22;25977;45.462;9.210;2022-07-09T14:04:24;32.00;42.50
40257;DHT22;25977;45.462;9.210;2022-07-09T14:06:51;32.30;43.10
40257;DHT22;25977;45.462;9.210;2022-07-09T14:09:16;32.40;42.40
40257;DHT22;25977;45.462;9.210;2022-07-09T14:11:42;32.50;42.10
40257;DHT22;25977;45.462;9.210;2022-07-09T14:14:08;32.60;42.00
40257;DHT22;25977;45.462;9.210;2022-07-09T14:16:34;32.50;42.00
40257;DHT22;25977;45.462;9.210;2022-07-09T14:19:00;32.30;42.00
40257;DHT22;25977;45.462;9.210;2022-07-09T14:21:26;31.90;41.80
40257;DHT22;25977;45.462;9.210;2022-07-09T14:23:53;31.60;42.80
40257;DHT22;25977;45.462;9.210;2022-07-09T14:26:19;31.80;42.40
40257;DHT22;25977;45.462;9.210;2022-07-09T14:28:45;31.70;42.40
40257;DHT22;25977;45.462;9.210;2022-07-09T14:31:11;31.70;42.60
40257;DHT22;25977;45.462;9.210;2022-07-09T14:33:37;31.90;42.60
40257;DHT22;25977;45.462;9.210;2022-07-09T14:36:03;31.90;42.50
40257;DHT22;25977;45.462;9.210;2022-07-09T14:38:29;31.60;42.40
40257;DHT22;25977;45.462;9.210;2022-07-09T14:40:54;31.70;42.60
40257;DHT22;25977;45.462;9.210;2022-07-09T14:43:20;31.60;42.60
40257;DHT22;25977;45.462;9.210;2022-07-09T14:45:46;31.50;42.80
40257;DHT22;25977;45.462;9.210;2022-07-09T14:48:11;31.50;42.90
40257;DHT22;25977;45.462;9.210;2022-07-09T14:50:39;31.30;42.90
40257;DHT22;25977;45.462;9.210;2022-07-09T14:53:05;31.40;42.90
40257;DHT22;25977;45.462;9.210;2022-07-09T14:55:31;31.40;43.00
40257;DHT22;25977;45.462;9.210;2022-07-09T14:57:58;30.70;43.30
40257;DHT22;25977;45.462;9.210;2022-07-09T15:00:24;30.90;43.60
40257;DHT22;25977;45.462;9.210;2022-07-09T15:02:50;31.10;43.40
40257;DHT22;25977;45.462;9.210;2022-07-09T15:05:15;31.10;43.30
40257;DHT22;25977;45.462;9.210;2022-07-09T15:07:42;31.30;43.30
40257;DHT22;25977;45.462;9.210;2022-07-09T15:10:08;31.40;43.20
40257;DHT22;25977;45.462;9.210;2022-07-09T15:12:34;31.40;43.10
40257;DHT22;25977;45.462;9.210;2022-07-09T15:15:00;31.60;42.90
40257;DHT22;25977;45.462;9.210;2022-07-09T15:17:26;31.80;43.00
40257;DHT22;25977;45.462;9.210;2022-07-09T15:19:51;31.60;42.70
40257;DHT22;25977;45.462;9.210;2022-07-09T15:22:17;31.60;43.00
40257;DHT22;25977;45.462;9.210;2022-07-09T15:24:43;31.80;42.90
40257;DHT22;25977;45.462;9.210;2022-07-09T15:27:08;31.80;42.80
40257;DHT22;25977;45.462;9.210;2022-07-09T15:29:34;31.90;42.80
40257;DHT22;25977;45.462;9.210;2022-07-09T15:32:00;31.70;42.90